sensor_id;sensor_type;location;lat;lon;timestamp;P1;durP1;ratioP1;P2;durP2;ratioP2
6394;SDS011;3230;42.588;23.358;2022-07-10T00:00:03;16.00;;;9.67;;
6394;SDS011;3230;42.588;23.358;2022-07-10T00:02:37;13.60;;;9.53;;
6394;SDS011;3230;42.588;23.358;2022-07-10T00:05:03;11.40;;;8.43;;
6394;SDS011;3230;42.588;23.358;2022-07-10T00:07:30;12.43;;;9.57;;
6394;SDS011;3230;42.588;23.358;2022-07-10T00:09:56;13.33;;;8.13;;
6394;SDS011;3230;42.588;23.358;2022-07-10T00:12:21;11.00;;;8.40;;
6394;SDS011;3230;42.588;23.358;2022-07-10T00:14:47;11.27;;;8.47;;
6394;SDS011;3230;42.588;23.358;2022-07-10T00:17:12;10.60;;;7.97;;
6394;SDS011;3230;42.588;23.358;2022-07-10T00:19:37;10.90;;;8.13;;
6394;SDS011;3230;42.588;23.358;2022-07-10T00:22:03;10.57;;;8.80;;
6394;SDS011;3230;42.588;23.358;2022-07-10T00:24:28;11.83;;;8.50;;
6394;SDS011;3230;42.588;23.358;2022-07-10T00:26:54;10.63;;;8.67;;
6394;SDS011;3230;42.588;23.358;2022-07-10T00:29:19;14.07;;;8.77;;
6394;SDS011;3230;42.588;23.358;2022-07-10T00:31:45;12.63;;;8.40;;
6394;SDS011;3230;42.588;23.358;2022-07-10T00:34:10;13.07;;;8.20;;
6394;SDS011;3230;42.588;23.358;2022-07-10T00:36:36;10.07;;;8.17;;
6394;SDS011;3230;42.588;23.358;2022-07-10T00:39:02;11.60;;;7.97;;
6394;SDS011;3230;42.588;23.358;2022-07-10T00:41:28;10.20;;;8.00;;
6394;SDS011;3230;42.588;23.358;2022-07-10T00:43:54;18.80;;;8.23;;
6394;SDS011;3230;42.588;23.358;2022-07-10T00:46:21;13.30;;;7.40;;
6394;SDS011;3230;42.588;23.358;2022-07-10T00:48:47;11.13;;;7.73;;
6394;SDS011;3230;42.588;23.358;2022-07-10T00:51:13;10.80;;;7.90;;
6394;SDS011;3230;42.588;23.358;2022-07-10T00:53:41;9.33;;;7.40;;
6394;SDS011;3230;42.588;23.358;2022-07-10T00:56:07;11.90;;;8.83;;
6394;SDS011;3230;42.588;23.358;2022-07-10T00:58:34;14.20;;;8.80;;
6394;SDS011;3230;42.588;23.358;2022-07-10T01:01:01;12.70;;;9.37;;
6394;SDS011;3230;42.588;23.358;2022-07-10T01:03:27;14.07;;;9.10;;
6394;SDS011;3230;42.588;23.358;2022-07-10T01:05:52;16.60;;;9.57;;
6394;SDS011;3230;42.588;23.358;2022-07-10T01:08:18;14.03;;;9.60;;
6394;SDS011;3230;42.588;23.358;2022-07-10T01:10:43;20.23;;;9.50;;
6394;SDS011;3230;42.588;23.358;2022-07-10T01:13:10;11.70;;;9.47;;
6394;SDS011;3230;42.588;23.358;2022-07-10T01:15:36;12.27;;;9.40;;
6394;SDS011;3230;42.588;23.358;2022-07-10T01:18:03;13.00;;;9.03;;
6394;SDS011;3230;42.588;23.358;2022-07-10T01:20:32;12.53;;;9.37;;
6394;SDS011;3230;42.588;23.358;2022-07-10T01:22:58;15.30;;;9.40;;
6394;SDS011;3230;42.588;23.358;2022-07-10T01:25:24;11.97;;;9.63;;
6394;SDS011;3230;42.588;23.358;2022-07-10T01:27:50;15.30;;;9.50;;
6394;SDS011;3230;42.588;23.358;2022-07-10T01:30:16;14.17;;;9.70;;
6394;SDS011;3230;42.588;23.358;2022-07-10T01:32:44;16.00;;;9.67;;
6394;SDS011;3230;42.588;23.358;2022-07-10T01:35:10;14.10;;;9.73;;
6394;SDS011;3230;42.588;23.358;2022-07-10T01:37:36;14.13;;;9.07;;
6394;SDS011;3230;42.588;23.358;2022-07-10T01:40:02;13.93;;;9.93;;
6394;SDS011;3230;42.588;23.358;2022-07-10T01:42:28;14.77;;;10.00;;
6394;SDS011;3230;42.588;23.358;2022-07-10T01:44:54;12.40;;;9.43;;
6394;SDS011;3230;42.588;23.358;2022-07-10T01:47:20;14.50;;;8.53;;
6394;SDS011;3230;42.588;23.358;2022-07-10T01:49:49;12.27;;;8.73;;
6394;SDS011;3230;42.588;23.358;2022-07-10T01:52:18;11.57;;;8.90;;
6394;SDS011;3230;42.588;23.358;2022-07-10T01:54:47;13.50;;;8.23;;
6394;SDS011;3230;42.588;23.358;2022-07-10T01:57:13;12.60;;;9.43;;
6394;SDS011;3230;42.588;23.358;2022-07-10T01:59:38;12.90;;;8.80;;
6394;SDS011;3230;42.588;23.358;2022-07-10T02:02:04;11.83;;;8.43;;
6394;SDS011;3230;42.588;23.358;2022-07-10T02:04:30;13.47;;;8.13;;
6394;SDS011;3230;42.588;23.358;2022-07-10T02:07:08;17.40;;;7.60;;
6394;SDS011;3230;42.588;23.358;2022-07-10T02:09:35;12.60;;;8.63;;
6394;SDS011;3230;42.588;23.358;2022-07-10T02:12:01;12.60;;;8.30;;
6394;SDS011;3230;42.588;23.358;2022-07-10T02:14:27;15.23;;;9.57;;
6394;SDS011;3230;42.588;23.358;2022-07-10T02:16:52;11.87;;;7.87;;
6394;SDS011;3230;42.588;23.358;2022-07-10T02:19:18;10.03;;;8.03;;
6394;SDS011;3230;42.588;23.358;2022-07-10T02:21:43;11.80;;;8.10;;
6394;SDS011;3230;42.588;23.358;2022-07-10T02:24:09;12.00;;;7.93;;
6394;SDS011;3230;42.588;23.358;2022-07-10T02:26:34;11.13;;;8.67;;
6394;SDS011;3230;42.588;23.358;2022-07-10T02:29:00;9.50;;;8.20;;
6394;SDS011;3230;42.588;23.358;2022-07-10T02:31:25;11.37;;;8.70;;
6394;SDS011;3230;42.588;23.358;2022-07-10T02:33:51;15.50;;;8.93;;
6394;SDS011;3230;42.588;23.358;2022-07-10T02:36:16;13.13;;;8.77;;
6394;SDS011;3230;42.588;23.358;2022-07-10T02:38:41;12.80;;;8.67;;
6394;SDS011;3230;42.588;23.358;2022-07-10T02:41:07;11.67;;;8.77;;
6394;SDS011;3230;42.588;23.358;2022-07-10T02:43:32;13.40;;;8.00;;
6394;SDS011;3230;42.588;23.358;2022-07-10T02:45:58;10.47;;;8.03;;
6394;SDS011;3230;42.588;23.358;2022-07-10T02:48:23;12.30;;;7.93;;
6394;SDS011;3230;42.588;23.358;2022-07-10T02:50:49;12.20;;;8.70;;
6394;SDS011;3230;42.588;23.358;2022-07-10T02:53:14;12.73;;;8.40;;
6394;SDS011;3230;42.588;23.358;2022-07-10T02:55:40;11.17;;;8.70;;
6394;SDS011;3230;42.588;23.358;2022-07-10T02:58:05;15.60;;;8.90;;
6394;SDS011;3230;42.588;23.358;2022-07-10T03:00:31;13.47;;;8.77;;
6394;SDS011;3230;42.588;23.358;2022-07-10T03:02:56;15.80;;;9.73;;
6394;SDS011;3230;42.588;23.358;2022-07-10T03:05:22;14.30;;;9.47;;
6394;SDS011;3230;42.588;23.358;2022-07-10T03:07:48;12.63;;;8.73;;
6394;SDS011;3230;42.588;23.358;2022-07-10T03:10:13;14.03;;;9.47;;
6394;SDS011;3230;42.588;23.358;2022-07-10T03:12:38;16.40;;;10.70;;
6394;SDS011;3230;42.588;23.358;2022-07-10T03:15:04;17.63;;;11.30;;
6394;SDS011;3230;42.588;23.358;2022-07-10T03:17:31;18.60;;;11.60;;
6394;SDS011;3230;42.588;23.358;2022-07-10T03:19:56;14.00;;;11.10;;
6394;SDS011;3230;42.588;23.358;2022-07-10T03:22:22;16.83;;;11.77;;
6394;SDS011;3230;42.588;23.358;2022-07-10T03:24:47;16.17;;;12.27;;
6394;SDS011;3230;42.588;23.358;2022-07-10T03:27:13;19.20;;;12.70;;
6394;SDS011;3230;42.588;23.358;2022-07-10T03:29:39;18.07;;;11.90;;
6394;SDS011;3230;42.588;23.358;2022-07-10T03:32:05;16.47;;;11.40;;
6394;SDS011;3230;42.588;23.358;2022-07-10T03:34:31;18.13;;;12.10;;
6394;SDS011;3230;42.588;23.358;2022-07-10T03:36:58;16.63;;;10.93;;
6394;SDS011;3230;42.588;23.358;2022-07-10T03:39:25;14.03;;;10.50;;
6394;SDS011;3230;42.588;23.358;2022-07-10T03:41:50;13.70;;;10.27;;
6394;SDS011;3230;42.588;23.358;2022-07-10T03:44:16;12.90;;;10.20;;
6394;SDS011;3230;42.588;23.358;2022-07-10T03:46:41;13.20;;;10.80;;
6394;SDS011;3230;42.588;23.358;2022-07-10T03:49:07;12.83;;;9.90;;
6394;SDS011;3230;42.588;23.358;2022-07-10T03:51:32;12.83;;;9.20;;
6394;SDS011;3230;42.588;23.358;2022-07-10T03:53:57;13.70;;;9.00;;
6394;SDS011;3230;42.588;23.358;2022-07-10T03:56:23;12.43;;;8.90;;
6394;SDS011;3230;42.588;23.358;2022-07-10T03:59:07;14.60;;;8.30;;
6394;SDS011;3230;42.588;23.358;2022-07-10T04:01:33;11.60;;;9.30;;
6394;SDS011;3230;42.588;23.358;2022-07-10T04:03:58;11.43;;;9.13;;
6394;SDS011;3230;42.588;23.358;2022-07-10T04:06:24;11.83;;;8.53;;
6394;SDS011;3230;42.588;23.358;2022-07-10T04:08:49;12.53;;;9.43;;
6394;SDS011;3230;42.588;23.358;2022-07-10T04:11:14;13.10;;;10.03;;
6394;SDS011;3230;42.588;23.358;2022-07-10T04:13:40;11.53;;;9.93;;
6394;SDS011;3230;42.588;23.358;2022-07-10T04:16:06;16.40;;;9.50;;
6394;SDS011;3230;42.588;23.358;2022-07-10T04:18:31;11.90;;;9.30;;
6394;SDS011;3230;42.588;23.358;2022-07-10T04:20:57;12.80;;;9.07;;
6394;SDS011;3230;42.588;23.358;2022-07-10T04:23:22;11.60;;;9.33;;
6394;SDS011;3230;42.588;23.358;2022-07-10T04:25:48;13.37;;;9.27;;
6394;SDS011;3230;42.588;23.358;2022-07-10T04:28:13;12.13;;;8.77;;
6394;SDS011;3230;42.588;23.358;2022-07-10T04:30:38;10.83;;;7.50;;
6394;SDS011;3230;42.588;23.358;2022-07-10T04:33:04;9.40;;;7.77;;
6394;SDS011;3230;42.588;23.358;2022-07-10T04:35:29;9.60;;;8.00;;
6394;SDS011;3230;42.588;23.358;2022-07-10T04:37:55;8.03;;;7.20;;
6394;SDS011;3230;42.588;23.358;2022-07-10T04:40:20;9.43;;;7.57;;
6394;SDS011;3230;42.588;23.358;2022-07-10T04:42:46;12.90;;;7.87;;
6394;SDS011;3230;42.588;23.358;2022-07-10T04:45:11;11.10;;;7.40;;
6394;SDS011;3230;42.588;23.358;2022-07-10T04:47:36;10.17;;;8.07;;
6394;SDS011;3230;42.588;23.358;2022-07-10T04:50:02;10.70;;;8.33;;
6394;SDS011;3230;42.588;23.358;2022-07-10T04:52:28;11.43;;;7.37;;
6394;SDS011;3230;42.588;23.358;2022-07-10T04:54:53;13.17;;;8.43;;
6394;SDS011;3230;42.588;23.358;2022-07-10T04:57:19;9.93;;;7.60;;
6394;SDS011;3230;42.588;23.358;2022-07-10T04:59:44;12.07;;;6.43;;
6394;SDS011;3230;42.588;23.358;2022-07-10T05:02:09;7.80;;;6.20;;
6394;SDS011;3230;42.588;23.358;2022-07-10T05:04:35;7.57;;;5.50;;
6394;SDS011;3230;42.588;23.358;2022-07-10T05:07:00;9.63;;;5.97;;
6394;SDS011;3230;42.588;23.358;2022-07-10T05:09:26;5.87;;;5.00;;
6394;SDS011;3230;42.588;23.358;2022-07-10T05:11:51;6.10;;;4.80;;
6394;SDS011;3230;42.588;23.358;2022-07-10T05:14:16;6.53;;;5.17;;
6394;SDS011;3230;42.588;23.358;2022-07-10T05:16:42;5.50;;;4.70;;
6394;SDS011;3230;42.588;23.358;2022-07-10T05:19:07;6.43;;;4.23;;
6394;SDS011;3230;42.588;23.358;2022-07-10T05:21:33;6.80;;;4.03;;
6394;SDS011;3230;42.588;23.358;2022-07-10T05:23:58;5.57;;;4.67;;
6394;SDS011;3230;42.588;23.358;2022-07-10T05:26:24;5.07;;;4.50;;
6394;SDS011;3230;42.588;23.358;2022-07-10T05:28:49;5.30;;;4.27;;
6394;SDS011;3230;42.588;23.358;2022-07-10T05:31:15;5.87;;;4.50;;
6394;SDS011;3230;42.588;23.358;2022-07-10T05:33:40;5.00;;;4.40;;
6394;SDS011;3230;42.588;23.358;2022-07-10T05:36:07;5.60;;;4.77;;
6394;SDS011;3230;42.588;23.358;2022-07-10T05:38:33;4.80;;;4.20;;
6394;SDS011;3230;42.588;23.358;2022-07-10T05:40:59;5.13;;;4.40;;
6394;SDS011;3230;42.588;23.358;2022-07-10T05:43:24;5.70;;;4.47;;
6394;SDS011;3230;42.588;23.358;2022-07-10T05:45:50;4.87;;;4.37;;
6394;SDS011;3230;42.588;23.358;2022-07-10T05:48:16;7.93;;;4.60;;
6394;SDS011;3230;42.588;23.358;2022-07-10T05:50:41;5.03;;;4.17;;
6394;SDS011;3230;42.588;23.358;2022-07-10T05:53:06;6.60;;;4.80;;
6394;SDS011;3230;42.588;23.358;2022-07-10T05:55:32;5.37;;;4.20;;
6394;SDS011;3230;42.588;23.358;2022-07-10T05:57:57;4.80;;;4.30;;
6394;SDS011;3230;42.588;23.358;2022-07-10T06:00:24;6.60;;;5.20;;
6394;SDS011;3230;42.588;23.358;2022-07-10T06:02:50;5.63;;;4.40;;
6394;SDS011;3230;42.588;23.358;2022-07-10T06:05:15;5.67;;;4.73;;
6394;SDS011;3230;42.588;23.358;2022-07-10T06:07:40;4.93;;;4.37;;
6394;SDS011;3230;42.588;23.358;2022-07-10T06:10:06;5.83;;;5.23;;
6394;SDS011;3230;42.588;23.358;2022-07-10T06:12:32;8.37;;;5.10;;
6394;SDS011;3230;42.588;23.358;2022-07-10T06:14:58;7.50;;;4.40;;
6394;SDS011;3230;42.588;23.358;2022-07-10T06:17:23;6.00;;;4.70;;
6394;SDS011;3230;42.588;23.358;2022-07-10T06:19:49;6.27;;;4.67;;
6394;SDS011;3230;42.588;23.358;2022-07-10T06:22:15;6.17;;;4.80;;
6394;SDS011;3230;42.588;23.358;2022-07-10T06:25:05;6.60;;;5.00;;
6394;SDS011;3230;42.588;23.358;2022-07-10T06:27:32;7.53;;;4.80;;
6394;SDS011;3230;42.588;23.358;2022-07-10T06:29:57;5.90;;;4.67;;
6394;SDS011;3230;42.588;23.358;2022-07-10T06:32:23;6.17;;;4.47;;
6394;SDS011;3230;42.588;23.358;2022-07-10T06:34:50;4.77;;;3.90;;
6394;SDS011;3230;42.588;23.358;2022-07-10T06:37:16;4.73;;;3.90;;
6394;SDS011;3230;42.588;23.358;2022-07-10T06:39:42;4.07;;;3.67;;
6394;SDS011;3230;42.588;23.358;2022-07-10T06:42:07;8.07;;;3.80;;
6394;SDS011;3230;42.588;23.358;2022-07-10T06:44:33;6.43;;;3.70;;
6394;SDS011;3230;42.588;23.358;2022-07-10T06:46:58;6.40;;;4.03;;
6394;SDS011;3230;42.588;23.358;2022-07-10T06:49:43;5.20;;;3.80;;
6394;SDS011;3230;42.588;23.358;2022-07-10T06:52:11;4.83;;;4.10;;
6394;SDS011;3230;42.588;23.358;2022-07-10T06:54:37;4.40;;;3.90;;
6394;SDS011;3230;42.588;23.358;2022-07-10T06:57:03;5.10;;;3.70;;
6394;SDS011;3230;42.588;23.358;2022-07-10T06:59:29;6.93;;;3.80;;
6394;SDS011;3230;42.588;23.358;2022-07-10T07:01:54;4.37;;;3.23;;
6394;SDS011;3230;42.588;23.358;2022-07-10T07:04:20;4.60;;;3.60;;
6394;SDS011;3230;42.588;23.358;2022-07-10T07:06:45;6.87;;;4.00;;
6394;SDS011;3230;42.588;23.358;2022-07-10T07:09:10;3.90;;;3.50;;
6394;SDS011;3230;42.588;23.358;2022-07-10T07:11:36;4.87;;;3.50;;
6394;SDS011;3230;42.588;23.358;2022-07-10T07:14:01;3.70;;;3.30;;
6394;SDS011;3230;42.588;23.358;2022-07-10T07:16:27;4.30;;;3.30;;
6394;SDS011;3230;42.588;23.358;2022-07-10T07:19:03;4.33;;;3.93;;
6394;SDS011;3230;42.588;23.358;2022-07-10T07:21:32;5.03;;;3.53;;
6394;SDS011;3230;42.588;23.358;2022-07-10T07:24:16;6.63;;;3.53;;
6394;SDS011;3230;42.588;23.358;2022-07-10T07:26:45;3.97;;;3.20;;
6394;SDS011;3230;42.588;23.358;2022-07-10T07:29:16;4.40;;;3.80;;
6394;SDS011;3230;42.588;23.358;2022-07-10T07:31:43;5.17;;;3.53;;
6394;SDS011;3230;42.588;23.358;2022-07-10T07:34:09;4.73;;;4.00;;
6394;SDS011;3230;42.588;23.358;2022-07-10T07:36:34;4.20;;;3.30;;
6394;SDS011;3230;42.588;23.358;2022-07-10T07:39:00;4.30;;;3.17;;
6394;SDS011;3230;42.588;23.358;2022-07-10T07:41:26;3.17;;;2.60;;
6394;SDS011;3230;42.588;23.358;2022-07-10T07:43:51;12.63;;;2.67;;
6394;SDS011;3230;42.588;23.358;2022-07-10T07:46:17;7.60;;;3.57;;
6394;SDS011;3230;42.588;23.358;2022-07-10T07:48:43;3.93;;;3.37;;
6394;SDS011;3230;42.588;23.358;2022-07-10T07:51:08;3.70;;;3.20;;
6394;SDS011;3230;42.588;23.358;2022-07-10T07:53:34;3.20;;;2.90;;
6394;SDS011;3230;42.588;23.358;2022-07-10T07:55:59;3.67;;;3.00;;
6394;SDS011;3230;42.588;23.358;2022-07-10T07:58:25;3.93;;;3.10;;
6394;SDS011;3230;42.588;23.358;2022-07-10T08:00:50;3.97;;;3.10;;
6394;SDS011;3230;42.588;23.358;2022-07-10T08:03:16;3.20;;;2.90;;
6394;SDS011;3230;42.588;23.358;2022-07-10T08:05:41;7.73;;;3.07;;
6394;SDS011;3230;42.588;23.358;2022-07-10T08:08:09;6.13;;;3.10;;
6394;SDS011;3230;42.588;23.358;2022-07-10T08:10:35;3.77;;;2.90;;
6394;SDS011;3230;42.588;23.358;2022-07-10T08:13:02;3.83;;;3.40;;
6394;SDS011;3230;42.588;23.358;2022-07-10T08:15:28;6.63;;;3.00;;
6394;SDS011;3230;42.588;23.358;2022-07-10T08:17:55;7.40;;;2.90;;
6394;SDS011;3230;42.588;23.358;2022-07-10T08:20:22;6.80;;;3.07;;
6394;SDS011;3230;42.588;23.358;2022-07-10T08:22:49;4.13;;;3.00;;
6394;SDS011;3230;42.588;23.358;2022-07-10T08:25:14;4.50;;;3.23;;
6394;SDS011;3230;42.588;23.358;2022-07-10T08:27:40;4.40;;;3.27;;
6394;SDS011;3230;42.588;23.358;2022-07-10T08:30:07;5.70;;;2.97;;
6394;SDS011;3230;42.588;23.358;2022-07-10T08:32:34;4.60;;;3.13;;
6394;SDS011;3230;42.588;23.358;2022-07-10T08:35:01;3.60;;;2.90;;
6394;SDS011;3230;42.588;23.358;2022-07-10T08:37:26;4.50;;;3.17;;
6394;SDS011;3230;42.588;23.358;2022-07-10T08:39:52;6.10;;;3.00;;
6394;SDS011;3230;42.588;23.358;2022-07-10T08:42:17;6.80;;;3.07;;
6394;SDS011;3230;42.588;23.358;2022-07-10T08:44:44;3.00;;;2.70;;
6394;SDS011;3230;42.588;23.358;2022-07-10T08:47:09;6.80;;;2.80;;
6394;SDS011;3230;42.588;23.358;2022-07-10T08:49:36;3.33;;;2.80;;
6394;SDS011;3230;42.588;23.358;2022-07-10T08:52:03;4.37;;;2.83;;
6394;SDS011;3230;42.588;23.358;2022-07-10T08:54:30;3.80;;;3.40;;
6394;SDS011;3230;42.588;23.358;2022-07-10T08:56:58;3.70;;;2.97;;
6394;SDS011;3230;42.588;23.358;2022-07-10T08:59:25;4.60;;;3.07;;
6394;SDS011;3230;42.588;23.358;2022-07-10T09:01:52;3.30;;;2.80;;
6394;SDS011;3230;42.588;23.358;2022-07-10T09:04:19;5.03;;;2.87;;
6394;SDS011;3230;42.588;23.358;2022-07-10T09:06:45;6.40;;;3.20;;
6394;SDS011;3230;42.588;23.358;2022-07-10T09:09:11;4.80;;;3.33;;
6394;SDS011;3230;42.588;23.358;2022-07-10T09:11:37;3.53;;;3.10;;
6394;SDS011;3230;42.588;23.358;2022-07-10T09:14:06;5.37;;;3.50;;
6394;SDS011;3230;42.588;23.358;2022-07-10T09:16:36;4.13;;;2.97;;
6394;SDS011;3230;42.588;23.358;2022-07-10T09:19:17;5.30;;;3.30;;
6394;SDS011;3230;42.588;23.358;2022-07-10T09:21:45;6.30;;;3.40;;
6394;SDS011;3230;42.588;23.358;2022-07-10T09:24:12;4.37;;;3.30;;
6394;SDS011;3230;42.588;23.358;2022-07-10T09:26:38;8.10;;;3.67;;
6394;SDS011;3230;42.588;23.358;2022-07-10T09:29:14;4.70;;;3.53;;
6394;SDS011;3230;42.588;23.358;2022-07-10T09:31:55;8.70;;;4.00;;
6394;SDS011;3230;42.588;23.358;2022-07-10T09:34:43;5.03;;;4.00;;
6394;SDS011;3230;42.588;23.358;2022-07-10T09:39:56;6.67;;;3.87;;
6394;SDS011;3230;42.588;23.358;2022-07-10T09:42:32;6.13;;;3.37;;
6394;SDS011;3230;42.588;23.358;2022-07-10T09:47:38;6.70;;;3.93;;
6394;SDS011;3230;42.588;23.358;2022-07-10T09:50:26;6.73;;;3.40;;
6394;SDS011;3230;42.588;23.358;2022-07-10T09:52:56;5.90;;;3.63;;
6394;SDS011;3230;42.588;23.358;2022-07-10T09:55:24;4.37;;;3.83;;
6394;SDS011;3230;42.588;23.358;2022-07-10T09:58:16;7.23;;;3.97;;
6394;SDS011;3230;42.588;23.358;2022-07-10T10:00:42;6.50;;;4.17;;
6394;SDS011;3230;42.588;23.358;2022-07-10T10:03:11;8.90;;;3.60;;
6394;SDS011;3230;42.588;23.358;2022-07-10T10:05:44;5.07;;;3.83;;
6394;SDS011;3230;42.588;23.358;2022-07-10T10:08:19;8.47;;;4.03;;
6394;SDS011;3230;42.588;23.358;2022-07-10T10:10:48;5.83;;;3.50;;
6394;SDS011;3230;42.588;23.358;2022-07-10T10:13:24;4.93;;;3.57;;
6394;SDS011;3230;42.588;23.358;2022-07-10T10:15:55;7.43;;;4.10;;
6394;SDS011;3230;42.588;23.358;2022-07-10T10:18:22;5.10;;;3.67;;
6394;SDS011;3230;42.588;23.358;2022-07-10T10:20:49;4.20;;;2.90;;
6394;SDS011;3230;42.588;23.358;2022-07-10T10:23:17;4.50;;;3.47;;
6394;SDS011;3230;42.588;23.358;2022-07-10T10:25:46;8.80;;;3.60;;
6394;SDS011;3230;42.588;23.358;2022-07-10T10:28:13;5.60;;;3.40;;
6394;SDS011;3230;42.588;23.358;2022-07-10T10:30:41;5.13;;;3.77;;
6394;SDS011;3230;42.588;23.358;2022-07-10T10:36:42;4.63;;;2.87;;
6394;SDS011;3230;42.588;23.358;2022-07-10T10:49:26;4.57;;;3.40;;
6394;SDS011;3230;42.588;23.358;2022-07-10T11:00:01;6.30;;;3.13;;
6394;SDS011;3230;42.588;23.358;2022-07-10T11:02:33;3.70;;;3.00;;
6394;SDS011;3230;42.588;23.358;2022-07-10T11:15:27;5.07;;;2.93;;
6394;SDS011;3230;42.588;23.358;2022-07-10T11:18:04;4.30;;;3.40;;
6394;SDS011;3230;42.588;23.358;2022-07-10T11:20:41;4.47;;;3.63;;
6394;SDS011;3230;42.588;23.358;2022-07-10T11:25:42;6.20;;;3.60;;
6394;SDS011;3230;42.588;23.358;2022-07-10T11:28:25;5.10;;;3.30;;
6394;SDS011;3230;42.588;23.358;2022-07-10T11:30:57;5.00;;;3.13;;
6394;SDS011;3230;42.588;23.358;2022-07-10T11:33:22;5.97;;;3.30;;
6394;SDS011;3230;42.588;23.358;2022-07-10T11:35:49;5.87;;;3.27;;
6394;SDS011;3230;42.588;23.358;2022-07-10T11:38:23;4.40;;;3.20;;
6394;SDS011;3230;42.588;23.358;2022-07-10T11:40:50;5.57;;;3.23;;
6394;SDS011;3230;42.588;23.358;2022-07-10T11:43:18;4.17;;;3.00;;
6394;SDS011;3230;42.588;23.358;2022-07-10T11:45:47;3.93;;;3.30;;
6394;SDS011;3230;42.588;23.358;2022-07-10T11:48:16;4.80;;;2.97;;
6394;SDS011;3230;42.588;23.358;2022-07-10T11:50:42;9.43;;;3.43;;
6394;SDS011;3230;42.588;23.358;2022-07-10T11:53:08;6.13;;;3.40;;
6394;SDS011;3230;42.588;23.358;2022-07-10T11:55:34;3.90;;;3.00;;
6394;SDS011;3230;42.588;23.358;2022-07-10T11:58:14;4.83;;;2.90;;
6394;SDS011;3230;42.588;23.358;2022-07-10T12:00:44;4.37;;;3.40;;
6394;SDS011;3230;42.588;23.358;2022-07-10T12:03:23;5.50;;;3.27;;
6394;SDS011;3230;42.588;23.358;2022-07-10T12:05:49;5.33;;;3.13;;
6394;SDS011;3230;42.588;23.358;2022-07-10T12:08:15;4.00;;;2.97;;
6394;SDS011;3230;42.588;23.358;2022-07-10T12:10:42;9.30;;;3.17;;
6394;SDS011;3230;42.588;23.358;2022-07-10T12:13:11;3.23;;;2.70;;
6394;SDS011;3230;42.588;23.358;2022-07-10T12:15:39;5.90;;;2.83;;
6394;SDS011;3230;42.588;23.358;2022-07-10T12:18:09;3.30;;;2.70;;
6394;SDS011;3230;42.588;23.358;2022-07-10T12:20:43;3.97;;;2.70;;
6394;SDS011;3230;42.588;23.358;2022-07-10T12:23:12;5.37;;;2.90;;
6394;SDS011;3230;42.588;23.358;2022-07-10T12:25:41;5.57;;;3.27;;
6394;SDS011;3230;42.588;23.358;2022-07-10T12:28:08;6.30;;;3.00;;
6394;SDS011;3230;42.588;23.358;2022-07-10T12:30:40;6.07;;;3.00;;
6394;SDS011;3230;42.588;23.358;2022-07-10T12:33:12;4.63;;;2.80;;
6394;SDS011;3230;42.588;23.358;2022-07-10T12:35:57;4.03;;;3.10;;
6394;SDS011;3230;42.588;23.358;2022-07-10T12:38:24;3.90;;;3.07;;
6394;SDS011;3230;42.588;23.358;2022-07-10T12:40:51;3.53;;;2.50;;
6394;SDS011;3230;42.588;23.358;2022-07-10T12:43:31;6.13;;;2.80;;
6394;SDS011;3230;42.588;23.358;2022-07-10T12:46:15;3.60;;;2.60;;
6394;SDS011;3230;42.588;23.358;2022-07-10T12:49:02;4.07;;;2.50;;
6394;SDS011;3230;42.588;23.358;2022-07-10T12:51:44;3.67;;;2.80;;
6394;SDS011;3230;42.588;23.358;2022-07-10T12:56:56;4.50;;;2.80;;
6394;SDS011;3230;42.588;23.358;2022-07-10T12:59:22;5.83;;;2.73;;
6394;SDS011;3230;42.588;23.358;2022-07-10T13:01:49;6.97;;;2.97;;
6394;SDS011;3230;42.588;23.358;2022-07-10T13:04:15;5.20;;;2.50;;
6394;SDS011;3230;42.588;23.358;2022-07-10T13:06:49;4.20;;;2.27;;
6394;SDS011;3230;42.588;23.358;2022-07-10T13:09:21;3.20;;;2.10;;
6394;SDS011;3230;42.588;23.358;2022-07-10T13:11:48;5.17;;;2.37;;
6394;SDS011;3230;42.588;23.358;2022-07-10T13:14:18;5.20;;;2.67;;
6394;SDS011;3230;42.588;23.358;2022-07-10T13:16:44;4.80;;;2.50;;
6394;SDS011;3230;42.588;23.358;2022-07-10T13:19:10;3.53;;;2.00;;
6394;SDS011;3230;42.588;23.358;2022-07-10T13:21:35;3.10;;;2.07;;
6394;SDS011;3230;42.588;23.358;2022-07-10T13:24:01;3.07;;;2.10;;
6394;SDS011;3230;42.588;23.358;2022-07-10T13:26:28;3.50;;;2.20;;
6394;SDS011;3230;42.588;23.358;2022-07-10T13:28:54;2.50;;;1.90;;
6394;SDS011;3230;42.588;23.358;2022-07-10T13:31:20;2.30;;;1.60;;
6394;SDS011;3230;42.588;23.358;2022-07-10T13:33:46;4.40;;;2.40;;
6394;SDS011;3230;42.588;23.358;2022-07-10T13:36:11;5.03;;;1.70;;
6394;SDS011;3230;42.588;23.358;2022-07-10T13:38:37;3.10;;;1.97;;
6394;SDS011;3230;42.588;23.358;2022-07-10T13:41:02;2.70;;;1.97;;
6394;SDS011;3230;42.588;23.358;2022-07-10T13:43:28;5.67;;;2.13;;
6394;SDS011;3230;42.588;23.358;2022-07-10T13:45:57;5.07;;;1.60;;
6394;SDS011;3230;42.588;23.358;2022-07-10T13:48:24;3.53;;;1.80;;
6394;SDS011;3230;42.588;23.358;2022-07-10T13:50:51;3.33;;;1.60;;
6394;SDS011;3230;42.588;23.358;2022-07-10T13:53:16;2.60;;;1.77;;
6394;SDS011;3230;42.588;23.358;2022-07-10T13:55:42;3.67;;;2.00;;
6394;SDS011;3230;42.588;23.358;2022-07-10T13:58:08;3.73;;;2.00;;
6394;SDS011;3230;42.588;23.358;2022-07-10T14:00:35;3.53;;;1.80;;
6394;SDS011;3230;42.588;23.358;2022-07-10T14:03:01;4.93;;;1.80;;
6394;SDS011;3230;42.588;23.358;2022-07-10T14:05:27;4.20;;;1.87;;
6394;SDS011;3230;42.588;23.358;2022-07-10T14:07:53;3.43;;;2.10;;
6394;SDS011;3230;42.588;23.358;2022-07-10T14:10:18;5.57;;;1.70;;
6394;SDS011;3230;42.588;23.358;2022-07-10T14:12:43;6.23;;;2.10;;
6394;SDS011;3230;42.588;23.358;2022-07-10T14:15:09;4.43;;;1.70;;
6394;SDS011;3230;42.588;23.358;2022-07-10T14:17:35;3.03;;;2.20;;
6394;SDS011;3230;42.588;23.358;2022-07-10T14:20:00;4.80;;;2.17;;
6394;SDS011;3230;42.588;23.358;2022-07-10T14:22:25;2.23;;;1.60;;
6394;SDS011;3230;42.588;23.358;2022-07-10T14:24:51;2.47;;;1.77;;
6394;SDS011;3230;42.588;23.358;2022-07-10T14:27:19;3.57;;;1.90;;
6394;SDS011;3230;42.588;23.358;2022-07-10T14:29:44;3.70;;;1.70;;
6394;SDS011;3230;42.588;23.358;2022-07-10T14:32:10;4.97;;;1.87;;
6394;SDS011;3230;42.588;23.358;2022-07-10T14:34:35;5.80;;;2.47;;
6394;SDS011;3230;42.588;23.358;2022-07-10T14:37:01;2.33;;;1.50;;
6394;SDS011;3230;42.588;23.358;2022-07-10T14:39:27;3.33;;;1.80;;
6394;SDS011;3230;42.588;23.358;2022-07-10T14:41:52;3.03;;;1.90;;
6394;SDS011;3230;42.588;23.358;2022-07-10T14:44:18;3.10;;;1.90;;
6394;SDS011;3230;42.588;23.358;2022-07-10T14:46:43;2.70;;;1.40;;
6394;SDS011;3230;42.588;23.358;2022-07-10T14:49:09;2.30;;;1.60;;
6394;SDS011;3230;42.588;23.358;2022-07-10T14:51:36;3.13;;;1.83;;
6394;SDS011;3230;42.588;23.358;2022-07-10T14:54:01;3.63;;;1.80;;
6394;SDS011;3230;42.588;23.358;2022-07-10T14:56:27;2.70;;;1.90;;
6394;SDS011;3230;42.588;23.358;2022-07-10T14:58:53;2.70;;;1.80;;
6394;SDS011;3230;42.588;23.358;2022-07-10T15:01:19;4.57;;;1.83;;
6394;SDS011;3230;42.588;23.358;2022-07-10T15:03:44;3.00;;;1.60;;
6394;SDS011;3230;42.588;23.358;2022-07-10T15:06:10;2.67;;;1.50;;
6394;SDS011;3230;42.588;23.358;2022-07-10T15:08:36;3.93;;;2.00;;
6394;SDS011;3230;42.588;23.358;2022-07-10T15:11:01;2.30;;;1.53;;
6394;SDS011;3230;42.588;23.358;2022-07-10T15:13:28;7.33;;;2.20;;
6394;SDS011;3230;42.588;23.358;2022-07-10T15:15:54;2.73;;;1.80;;
6394;SDS011;3230;42.588;23.358;2022-07-10T15:18:20;2.50;;;1.70;;
6394;SDS011;3230;42.588;23.358;2022-07-10T15:20:46;3.10;;;1.80;;
6394;SDS011;3230;42.588;23.358;2022-07-10T15:23:12;5.50;;;2.13;;
6394;SDS011;3230;42.588;23.358;2022-07-10T15:25:38;2.40;;;1.80;;
6394;SDS011;3230;42.588;23.358;2022-07-10T15:28:05;5.83;;;1.80;;
6394;SDS011;3230;42.588;23.358;2022-07-10T15:30:32;2.43;;;1.63;;
6394;SDS011;3230;42.588;23.358;2022-07-10T15:32:58;3.53;;;1.90;;
6394;SDS011;3230;42.588;23.358;2022-07-10T15:35:23;6.63;;;1.90;;
6394;SDS011;3230;42.588;23.358;2022-07-10T15:37:49;3.37;;;1.93;;